Time;durP1;ratioP1;P1;durP2;ratioP2;P2;SDS_P1;SDS_P2;PMS_P1;PMS_P2;Temp;Humidity;BMP_temperature;BMP_pressure;BME280_temperature;BME280_humidity;BME280_pressure;Samples;Min_cycle;Max_cycle;Signal;HPM_P1;HPM_P2
2023/01/06 00:01:44;;;;;;;2.10;1.53;;;;;;;17.58;60.62;97282.41;10368912;28;20038;-27
2023/01/06 00:06:44;;;;;;;3.93;1.33;;;;;;;17.56;60.22;97276.47;10369075;28;20030;-27
2023/01/06 00:11:44;;;;;;;3.47;1.20;;;;;;;17.56;60.29;97279.00;10365174;28;20036;-26
2023/01/06 00:16:45;;;;;;;2.33;1.30;;;;;;;17.55;60.35;97273.09;10364308;28;20120;-25
2023/01/06 00:21:45;;;;;;;2.17;1.47;;;;;;;17.55;60.31;97257.03;10371172;28;20492;-25
2023/01/06 00:26:46;;;;;;;1.93;1.23;;;;;;;17.55;60.46;97262.09;10369347;28;20281;-26
2023/01/06 00:31:47;;;;;;;3.55;1.67;;;;;;;17.58;67.37;97257.09;10364684;28;20030;-27
2023/01/06 00:36:47;;;;;;;2.40;1.47;;;;;;;17.59;67.63;97256.25;10369793;28;20092;-27
2023/01/06 00:42:03;;;;;;;2.00;1.53;;;;;;;17.61;65.08;97252.03;10369772;28;20030;-25
2023/01/06 00:47:06;;;;;;;3.00;1.60;;;;;;;17.59;62.79;97259.63;10368718;28;20030;-26
2023/01/06 00:52:07;;;;;;;1.98;1.40;;;;;;;17.60;62.14;97260.47;10366547;28;20031;-26
2023/01/06 00:57:08;;;;;;;3.25;1.70;;;;;;;17.59;61.67;97266.38;10368044;28;20034;-26
2023/01/06 01:02:08;;;;;;;2.47;1.08;;;;;;;17.59;61.04;97266.38;10366831;28;20034;-26
2023/01/06 01:07:09;;;;;;;1.60;1.40;;;;;;;17.59;61.27;97268.91;10367290;28;20402;-26
2023/01/06 01:12:13;;;;;;;1.65;1.15;;;;;;;17.57;61.20;97255.38;10371141;28;20403;-27
2023/01/06 01:17:18;;;;;;;3.83;1.48;;;;;;;17.57;61.85;97255.38;10366001;28;20032;-27
2023/01/06 01:22:21;;;;;;;1.70;1.00;;;;;;;17.57;61.16;97265.53;10364486;28;20077;-27
2023/01/06 01:27:21;;;;;;;2.95;1.20;;;;;;;17.57;61.18;97260.44;10369701;28;20052;-26
2023/01/06 01:32:22;;;;;;;3.10;1.23;;;;;;;17.54;61.45;97250.28;10368820;28;20421;-27
2023/01/06 01:37:22;;;;;;;1.80;1.30;;;;;;;17.53;67.33;97259.56;10366938;28;20569;-27
2023/01/06 01:42:23;;;;;;;3.78;1.50;;;;;;;17.58;67.49;97257.09;10384215;28;20060;-25
2023/01/06 01:47:51;;;;;;;2.45;1.27;;;;;;;17.57;67.00;97255.38;10366434;28;20116;-27
2023/01/06 01:52:57;;;;;;;2.58;1.30;;;;;;;17.56;64.59;97256.22;10362662;28;20493;-26
2023/01/06 01:58:09;;;;;;;3.88;1.20;;;;;;;17.56;62.80;97253.69;10368799;28;20034;-28
2023/01/06 02:03:12;;;;;;;1.73;0.90;;;;;;;17.58;62.73;97264.69;10359588;28;20519;-28
2023/01/06 02:08:25;;;;;;;1.58;0.90;;;;;;;17.57;62.81;97255.38;10361398;28;20056;-26
2023/01/06 02:13:26;;;;;;;1.25;0.98;;;;;;;17.57;62.58;97265.53;10367162;28;20117;-26
2023/01/06 02:18:36;;;;;;;3.00;1.30;;;;;;;17.56;62.11;97253.69;10358594;28;20042;-27
2023/01/06 02:23:42;;;;;;;3.53;1.55;;;;;;;17.56;62.21;97253.69;10354824;28;20120;-25
2023/01/06 02:29:08;;;;;;;1.70;0.90;;;;;;;17.57;63.13;97256.22;10376002;28;20124;-26
2023/01/06 02:34:29;;;;;;;1.20;0.95;;;;;;;17.56;62.47;97251.16;10385148;28;20633;-26
2023/01/06 02:39:56;;;;;;;1.73;0.80;;;;;;;17.56;62.92;97246.09;10369004;28;20033;-26
2023/01/06 02:45:25;;;;;;;1.63;0.80;;;;;;;17.55;67.19;97237.63;10376553;28;20530;-26
2023/01/06 02:50:35;;;;;;;2.25;1.30;;;;;;;17.57;67.43;97230.06;10380436;28;20482;-25
2023/01/06 02:55:42;;;;;;;3.22;1.30;;;;;;;17.52;66.88;97232.56;10387027;28;20093;-27
2023/01/06 03:00:46;;;;;;;;;;;;;;;17.56;65.46;97223.31;10368607;28;20445;-26
2023/01/06 03:05:56;;;;;;;2.03;1.20;;;;;;;17.55;65.01;97231.72;10381097;28;19913;-26
2023/01/06 03:11:00;;;;;;;3.47;1.20;;;;;;;17.55;64.64;97226.66;10375664;28;20037;-26
2023/01/06 03:16:02;;;;;;;1.30;1.00;;;;;;;17.54;63.69;97224.94;10365668;28;20523;-26
2023/01/06 03:21:08;;;;;;;1.48;0.90;;;;;;;17.54;63.84;97217.34;10381281;28;20048;-26
2023/01/06 03:26:09;;;;;;;2.97;1.05;;;;;;;17.50;63.56;97202.97;10377532;28;20050;-25
2023/01/06 03:31:25;;;;;;;1.67;0.88;;;;;;;17.53;63.84;97213.13;10357016;28;20042;-26
2023/01/06 03:36:41;;;;;;;3.53;1.48;;;;;;;17.54;64.83;97213.16;10366684;28;20056;-27
2023/01/06 03:47:23;;;;;;;1.33;1.00;;;;;;;17.52;64.20;97216.50;10391633;28;20033;-27
2023/01/06 03:52:32;;;;;;;5.03;1.58;;;;;;;17.49;67.22;97212.25;10387964;28;20071;-26
2023/01/06 03:57:36;;;;;;;3.67;1.15;;;;;;;17.53;67.09;97208.94;10374030;28;20034;-25
2023/01/06 04:02:40;;;;;;;2.78;1.05;;;;;;;17.49;66.65;97212.25;10382297;28;20412;-27
2023/01/06 04:07:44;;;;;;;2.88;0.93;;;;;;;17.54;65.75;97219.88;10380869;28;20032;-27
2023/01/06 04:12:45;;;;;;;1.13;1.02;;;;;;;17.51;64.60;97230.81;10374267;28;20034;-27
2023/01/06 04:17:50;;;;;;;2.78;1.25;;;;;;;17.52;64.81;97226.63;10386788;28;20040;-26
2023/01/06 04:22:54;;;;;;;1.73;0.90;;;;;;;17.51;64.72;97230.81;10369751;28;20429;-26
2023/01/06 04:27:54;;;;;;;2.17;0.93;;;;;;;17.47;65.25;97223.19;10396147;28;20026;-26
2023/01/06 04:32:56;;;;;;;2.60;0.77;;;;;;;17.50;65.81;97225.75;10371553;28;20060;-25
2023/01/06 04:37:56;;;;;;;2.60;1.05;;;;;;;17.50;64.83;97225.75;10370156;28;20030;-26
2023/01/06 04:43:06;;;;;;;3.33;0.87;;;;;;;17.50;63.43;97223.22;10390459;28;20034;-26
2023/01/06 04:48:08;;;;;;;1.20;0.80;;;;;;;17.49;64.23;97221.53;10375917;28;20052;-25
2023/01/06 04:53:11;;;;;;;2.45;1.15;;;;;;;17.51;64.06;97209.75;10382740;28;20136;-26
2023/01/06 04:58:11;;;;;;;1.40;0.98;;;;;;;17.51;66.24;97210.56;10378496;28;20443;-26
2023/01/06 05:03:11;;;;;;;1.80;0.93;;;;;;;17.60;66.56;97213.25;10386170;28;20251;-26
2023/01/06 05:08:12;;;;;;;2.00;0.97;;;;;;;17.64;66.35;97211.56;10380791;28;20047;-25
2023/01/06 05:13:12;;;;;;;1.80;1.00;;;;;;;17.63;64.22;97204.78;10371632;28;20409;-26
2023/01/06 05:18:12;;;;;;;2.10;0.87;;;;;;;17.63;63.80;97213.25;10380237;28;20421;-26
2023/01/06 05:23:13;;;;;;;1.80;1.13;;;;;;;17.64;63.99;97209.03;10369206;28;20056;-24
2023/01/06 05:28:13;;;;;;;3.40;1.23;;;;;;;17.64;64.19;97206.50;10390812;28;20030;-26
2023/01/06 05:33:14;;;;;;;0.93;0.60;;;;;;;17.62;64.02;97198.03;10366542;28;20465;-25
2023/01/06 05:38:14;;;;;;;4.10;0.90;;;;;;;17.61;63.86;97188.75;10373333;28;20038;-26
2023/01/06 05:43:15;;;;;;;1.30;0.70;;;;;;;17.63;63.46;97204.78;10387173;28;20040;-27
2023/01/06 05:48:15;;;;;;;0.80;0.67;;;;;;;17.65;63.98;97208.22;10393477;28;20092;-27
2023/01/06 05:53:15;;;;;;;2.60;0.83;;;;;;;17.64;64.35;97206.50;10388227;28;20041;-26
2023/01/06 05:58:16;;;;;;;1.23;0.80;;;;;;;17.63;64.06;97199.72;10387571;28;20291;-26
2023/01/06 06:03:16;;;;;;;0.80;0.73;;;;;;;17.62;64.22;97203.09;10371917;28;20033;-26
2023/01/06 06:08:16;;;;;;;1.10;0.63;;;;;;;17.62;65.66;97196.38;10368761;28;20041;-25
2023/01/06 06:13:17;;;;;;;2.50;0.73;;;;;;;17.66;67.01;97202.31;10380979;28;20087;-26
2023/01/06 06:18:17;;;;;;;1.87;0.87;;;;;;;17.67;65.50;97196.41;10384698;28;20057;-25
2023/01/06 06:23:19;;;;;;;2.60;0.60;;;;;;;17.65;65.14;97187.97;10366105;28;20060;-25
2023/01/06 06:28:19;;;;;;;1.00;0.60;;;;;;;17.65;65.06;97182.91;10366591;28;20064;-26
2023/01/06 06:33:20;;;;;;;1.67;0.93;;;;;;;17.62;65.16;97183.72;10375567;28;20117;-26
2023/01/06 06:38:20;;;;;;;2.67;0.80;;;;;;;17.62;65.42;97187.91;10364694;28;20104;-26
2023/01/06 06:43:21;;;;;;;1.67;0.93;;;;;;;17.58;64.79;97192.09;10366305;28;20044;-26
2023/01/06 06:48:21;;;;;;;4.45;0.82;;;;;;;17.57;62.74;97197.16;10364869;28;20283;-27
2023/01/06 06:53:21;;;;;;;3.73;0.50;;;;;;;17.63;63.74;97210.72;10359112;28;20030;-26
2023/01/06 06:58:22;;;;;;;1.42;0.95;;;;;;;17.63;63.13;97202.25;10366949;28;20120;-28
2023/01/06 07:03:24;;;;;;;4.55;0.85;;;;;;;17.60;61.86;97204.78;10385488;28;20038;-27
2023/01/06 07:08:24;;;;;;;4.38;0.93;;;;;;;17.63;61.47;97209.88;10380325;28;20041;-25
2023/01/06 07:13:25;;;;;;;8.57;1.20;;;;;;;17.59;61.92;97211.50;10366438;28;20084;-28
2023/01/06 07:18:25;;;;;;;3.35;1.02;;;;;;;17.55;63.35;97217.38;10372112;28;20061;-27
2023/01/06 07:23:26;;;;;;;3.90;0.90;;;;;;;17.57;63.18;97219.94;10361332;28;20401;-27
2023/01/06 07:28:28;;;;;;;6.20;1.00;;;;;;;17.51;63.53;97235.88;10351414;28;20054;-26
2023/01/06 07:33:29;;;;;;;14.60;0.95;;;;;;;17.46;63.40;97231.59;10360415;28;20788;-26
2023/01/06 07:38:29;;;;;;;8.00;1.83;;;;;;;17.42;63.34;97245.06;10371954;28;20123;-26
2023/01/06 07:43:29;;;;;;;2.53;0.97;;;;;;;17.42;63.72;97255.19;10362029;28;20643;-26
2023/01/06 07:48:30;;;;;;;1.80;0.80;;;;;;;17.39;63.80;97255.13;10374144;28;20029;-26
2023/01/06 07:53:30;;;;;;;5.00;0.93;;;;;;;17.43;63.77;97260.28;10368583;28;20045;-26
2023/01/06 07:58:30;;;;;;;7.70;3.07;;;;;;;17.36;63.80;97262.69;10362612;28;20034;-26
2023/01/06 08:03:31;;;;;;;6.53;2.87;;;;;;;17.38;63.98;97274.56;10375807;28;20281;-26
2023/01/06 08:08:34;;;;;;;6.17;3.17;;;;;;;17.20;60.87;97268.34;10355102;28;20049;-27
2023/01/06 08:13:36;;;;;;;12.70;3.40;;;;;;;17.26;62.35;97270.97;10356909;28;20041;-26
2023/01/06 08:18:36;;;;;;;8.82;2.55;;;;;;;17.29;63.20;97258.34;10376503;28;20066;-27
2023/01/06 08:23:38;;;;;;;12.73;2.80;;;;;;;17.35;64.04;97266.91;10378896;28;20525;-27
2023/01/06 08:28:39;;;;;;;7.30;3.05;;;;;;;17.39;63.61;97262.72;10379720;28;20077;-25
2023/01/06 08:33:40;;;;;;;9.82;2.80;;;;;;;17.40;63.01;97267.00;10376254;28;20461;-27
2023/01/06 08:38:40;;;;;;;7.32;3.50;;;;;;;17.36;63.25;97286.34;10369610;28;20072;-24
2023/01/06 08:43:43;;;;;;;12.27;3.35;;;;;;;17.36;63.48;97285.47;10382934;28;20087;-26
2023/01/06 08:48:43;;;;;;;7.80;2.45;;;;;;;17.32;63.64;97279.50;10377866;28;20483;-26
2023/01/06 08:53:44;;;;;;;6.40;2.70;;;;;;;17.32;63.36;97276.97;10377194;28;20125;-27
2023/01/06 08:58:49;;;;;;;6.97;2.80;;;;;;;17.31;63.54;97284.56;10396037;28;20560;-27
2023/01/06 09:03:49;;;;;;;8.27;2.45;;;;;;;17.30;63.71;97296.34;10389355;28;20037;-26
2023/01/06 09:08:50;;;;;;;4.70;2.70;;;;;;;17.29;63.37;97293.78;10357108;28;20049;-25
2023/01/06 09:13:51;;;;;;;6.47;2.00;;;;;;;17.31;63.58;97302.28;10373840;28;20034;-25
2023/01/06 09:18:54;;;;;;;5.00;2.38;;;;;;;17.26;63.90;97308.94;10376343;28;20037;-27
2023/01/06 09:23:54;;;;;;;5.28;2.30;;;;;;;17.27;62.97;97321.63;10372469;28;20060;-26
2023/01/06 09:28:54;;;;;;;5.83;2.67;;;;;;;17.27;63.45;97321.63;10374362;28;20109;-27
2023/01/06 09:33:55;;;;;;;5.13;2.60;;;;;;;17.33;63.99;97326.75;10374719;28;20437;-25
2023/01/06 09:38:55;;;;;;;6.37;2.33;;;;;;;17.36;64.36;97341.16;10385807;28;20406;-25
2023/01/06 09:44:16;;;;;;;3.53;2.00;;;;;;;17.36;63.42;97341.16;10384313;28;20084;-25
2023/01/06 09:49:56;;;;;;;3.65;2.13;;;;;;;17.31;63.58;97347.81;10385566;28;20050;-28
2023/01/06 09:55:11;;;;;;;2.15;1.67;;;;;;;17.28;63.64;97352.81;10363756;28;20275;-25
2023/01/06 10:00:25;;;;;;;4.35;2.03;;;;;;;17.27;63.58;97351.13;10363716;28;20036;-26
2023/01/06 10:05:40;;;;;;;3.47;2.40;;;;;;;17.26;63.57;97360.38;10367931;28;20083;-27
2023/01/06 10:10:59;;;;;;;5.68;1.70;;;;;;;17.25;63.60;97362.91;10368398;28;20065;-25
2023/01/06 10:16:22;;;;;;;5.30;1.70;;;;;;;17.22;63.74;97355.25;10364725;28;20108;-25
2023/01/06 10:21:47;;;;;;;2.60;1.70;;;;;;;17.22;63.55;97348.53;10362739;28;20034;-27
2023/01/06 10:26:54;;;;;;;4.38;2.47;;;;;;;17.22;63.78;97347.66;10361519;28;20060;-26
2023/01/06 10:31:58;;;;;;;2.95;1.70;;;;;;;17.21;63.55;97328.25;10366885;28;20038;-28
2023/01/06 10:37:19;;;;;;;1.75;1.63;;;;;;;17.16;63.83;97314.69;10366042;28;20486;-27
2023/01/06 10:42:54;;;;;;;2.83;1.90;;;;;;;17.26;64.25;97308.94;10367134;28;20084;-26
2023/01/06 10:47:55;;;;;;;3.47;1.60;;;;;;;17.31;64.42;97292.16;10355127;28;20038;-27
2023/01/06 10:52:56;;;;;;;3.00;1.80;;;;;;;17.29;63.98;97283.66;10365926;28;20536;-27
2023/01/06 10:58:02;;;;;;;3.27;1.50;;;;;;;17.26;63.65;97279.41;10367686;28;20107;-26
2023/01/06 11:03:05;;;;;;;4.00;1.77;;;;;;;17.25;63.65;97266.75;10360549;28;20794;-28
2023/01/06 11:08:14;;;;;;;1.92;1.35;;;;;;;17.22;63.54;97261.63;10358459;28;20485;-26
2023/01/06 11:13:23;;;;;;;2.63;1.30;;;;;;;17.21;63.37;97262.47;10367499;28;20033;-27
2023/01/06 11:18:29;;;;;;;1.77;1.45;;;;;;;17.19;63.29;97256.53;10361135;28;20505;-26
2023/01/06 11:23:30;;;;;;;2.40;1.40;;;;;;;17.19;63.89;97257.41;10360309;28;20112;-27
2023/01/06 11:28:30;;;;;;;2.30;1.42;;;;;;;17.20;63.63;97248.13;10365483;28;20111;-26
2023/01/06 11:33:34;;;;;;;2.25;1.40;;;;;;;17.19;63.55;97246.41;10366872;28;20033;-27
2023/01/06 11:38:44;;;;;;;2.92;1.52;;;;;;;17.17;63.39;97248.09;10365099;28;20061;-25
2023/01/06 11:43:45;;;;;;;2.25;1.52;;;;;;;17.11;63.78;97237.88;10366212;28;20474;-27
2023/01/06 11:48:48;;;;;;;3.45;1.73;;;;;;;17.20;62.78;97231.25;10364952;28;20084;-26
2023/01/06 11:53:56;;;;;;;3.70;2.00;;;;;;;17.28;64.44;97226.28;10362355;28;20026;-27
2023/01/06 11:59:08;;;;;;;3.45;2.25;;;;;;;17.25;64.22;97216.13;10368096;28;20042;-26
2023/01/06 12:04:16;;;;;;;2.30;1.40;;;;;;;17.23;63.73;97205.16;10372320;28;20374;-25
2023/01/06 12:09:23;;;;;;;4.00;1.80;;;;;;;17.22;63.51;97198.38;10371906;28;20084;-27
2023/01/06 12:14:26;;;;;;;;;;;;;;;17.18;63.43;97201.72;10370530;28;20497;-26
2023/01/06 12:19:52;;;;;;;1.40;1.20;;;;;;;17.15;63.66;97192.41;10372292;28;19960;-26
2023/01/06 12:24:56;;;;;;;2.03;1.45;;;;;;;17.15;63.35;97189.88;10365388;28;20040;-26
2023/01/06 12:30:01;;;;;;;5.85;1.40;;;;;;;17.14;63.45;97183.09;10365523;28;20391;-27
2023/01/06 12:35:03;;;;;;;2.03;1.50;;;;;;;17.13;63.69;97185.59;10372221;28;20049;-27
2023/01/06 12:40:15;;;;;;;2.85;1.42;;;;;;;17.15;63.29;97178.91;10367718;28;20030;-26
2023/01/06 12:45:22;;;;;;;2.72;1.65;;;;;;;17.13;63.16;97178.00;10370722;28;20038;-26
2023/01/06 12:50:37;;;;;;;2.38;1.58;;;;;;;17.11;63.49;97172.09;10371524;28;20038;-27
2023/01/06 12:55:52;;;;;;;1.35;1.25;;;;;;;17.12;63.41;97163.66;10363866;28;20391;-25
2023/01/06 13:00:56;;;;;;;2.25;1.58;;;;;;;17.19;64.23;97166.31;10362794;28;20038;-27
2023/01/06 13:06:16;;;;;;;3.10;1.90;;;;;;;17.22;64.34;97170.53;10367131;28;20049;-25
2023/01/06 13:11:22;;;;;;;2.20;1.65;;;;;;;17.21;63.60;97161.25;10367638;28;20057;-26
2023/01/06 13:16:43;;;;;;;2.07;1.40;;;;;;;17.19;63.42;97165.44;10365839;28;20026;-26
2023/01/06 13:21:46;;;;;;;1.45;1.23;;;;;;;17.13;63.61;97165.38;10353105;28;20722;-27
2023/01/06 13:26:57;;;;;;;2.25;1.42;;;;;;;17.14;63.37;97162.03;10370148;28;20095;-25
2023/01/06 13:32:34;;;;;;;1.63;1.17;;;;;;;17.12;63.37;97163.66;10363326;28;20508;-27
2023/01/06 13:37:39;;;;;;;1.45;1.35;;;;;;;17.09;63.50;97168.69;10361364;28;20083;-27
2023/01/06 13:42:52;;;;;;;2.25;1.73;;;;;;;17.06;63.58;97153.50;10369640;28;20050;-26
2023/01/06 13:47:53;;;;;;;2.28;1.30;;;;;;;17.13;63.20;97155.25;10366252;28;20083;-26
2023/01/06 13:52:54;;;;;;;2.13;1.30;;;;;;;17.08;63.38;97155.19;10368528;28;20145;-26
2023/01/06 13:57:55;;;;;;;1.48;1.17;;;;;;;17.05;63.29;97151.78;10369078;28;20113;-25
2023/01/06 14:02:55;;;;;;;1.40;1.20;;;;;;;17.09;63.41;97156.06;10366585;28;20033;-27
2023/01/06 14:08:01;;;;;;;2.08;1.23;;;;;;;17.13;62.22;97155.25;10367433;28;20030;-27
2023/01/06 14:13:06;;;;;;;1.70;1.50;;;;;;;17.18;64.18;97171.34;10368353;28;20041;-27
2023/01/06 14:18:31;;;;;;;2.03;1.27;;;;;;;17.18;63.83;97163.75;10362843;28;20044;-27
2023/01/06 14:23:33;;;;;;;1.13;1.00;;;;;;;17.15;63.41;97162.03;10365094;28;20029;-25
2023/01/06 14:28:34;;;;;;;1.40;1.30;;;;;;;17.13;63.15;97165.38;10367703;28;20034;-28
2023/01/06 14:33:38;;;;;;;1.65;1.27;;;;;;;17.10;63.41;97170.41;10367529;28;20026;-28
2023/01/06 14:38:45;;;;;;;1.80;1.33;;;;;;;17.11;63.15;97167.03;10366036;28;20084;-26
2023/01/06 14:43:55;;;;;;;1.40;1.00;;;;;;;17.10;63.10;97167.88;10367961;28;20033;-26
2023/01/06 14:49:01;;;;;;;1.48;1.05;;;;;;;17.08;63.16;97174.59;10361534;28;20034;-27
2023/01/06 14:54:16;;;;;;;2.17;1.13;;;;;;;17.08;63.64;97182.19;10365923;28;20034;-24
2023/01/06 14:59:16;;;;;;;2.40;1.50;;;;;;;17.07;63.57;97188.91;10358979;28;20508;-27
2023/01/06 15:04:23;;;;;;;2.27;1.10;;;;;;;17.06;63.29;97188.91;10363229;28;20172;-27
2023/01/06 15:09:23;;;;;;;1.35;1.02;;;;;;;17.07;63.11;97195.66;10365162;28;20103;-26
2023/01/06 15:14:32;;;;;;;1.60;1.03;;;;;;;17.05;63.52;97192.25;10357976;28;20561;-25
2023/01/06 15:19:33;;;;;;;3.05;1.35;;;;;;;17.10;63.71;97193.16;10365189;28;20124;-26
2023/01/06 15:24:39;;;;;;;1.48;1.10;;;;;;;17.18;64.39;97191.59;10365399;28;20038;-27
2023/01/06 15:29:53;;;;;;;1.45;1.23;;;;;;;17.15;63.60;97187.31;10373767;28;20037;-27
2023/01/06 15:34:56;;;;;;;1.45;1.15;;;;;;;17.12;63.34;97196.56;10367271;28;20564;-26
2023/01/06 15:39:57;;;;;;;1.70;0.95;;;;;;;17.08;63.19;97199.91;10372748;28;20034;-25
2023/01/06 15:44:59;;;;;;;2.47;1.10;;;;;;;17.06;63.40;97201.56;10373068;28;20110;-27
2023/01/06 15:50:06;;;;;;;1.42;0.85;;;;;;;17.06;63.35;97211.69;10373527;28;20030;-26
2023/01/06 15:55:20;;;;;;;1.75;1.15;;;;;;;17.04;63.47;97213.31;10372443;28;20117;-27
2023/01/06 16:00:24;;;;;;;1.60;1.00;;;;;;;17.04;63.42;97215.84;10369326;28;20030;-26
2023/01/06 16:05:42;;;;;;;1.58;0.95;;;;;;;17.03;63.62;97224.25;10369803;28;20041;-26
2023/01/06 16:10:44;;;;;;;1.40;1.10;;;;;;;17.04;63.46;97215.84;10372978;28;20091;-25
2023/01/06 16:15:59;;;;;;;1.35;1.05;;;;;;;17.03;63.49;97215.00;10367008;28;20045;-28
2023/01/06 16:21:15;;;;;;;1.92;1.27;;;;;;;17.02;63.46;97228.50;10365952;28;20029;-25
2023/01/06 16:26:22;;;;;;;1.42;1.23;;;;;;;17.03;63.33;97222.59;10372723;28;20042;-27
2023/01/06 16:31:41;;;;;;;1.65;1.10;;;;;;;17.09;64.12;97237.00;10362167;28;20077;-27
2023/01/06 16:36:41;;;;;;;1.92;1.70;;;;;;;17.11;63.78;97237.88;10370580;28;20502;-28
2023/01/06 16:47:32;;;;;;;1.95;1.10;;;;;;;17.06;63.35;97230.22;10367712;28;20042;-26
2023/01/06 16:52:33;;;;;;;1.50;1.00;;;;;;;17.06;63.08;97234.44;10369621;28;20048;-26
2023/01/06 16:57:33;;;;;;;1.40;0.90;;;;;;;17.03;63.59;97224.25;10371487;28;20378;-26
2023/01/06 17:02:33;;;;;;;1.20;0.90;;;;;;;17.01;63.43;97223.41;10370107;28;20482;-26
2023/01/06 17:07:34;;;;;;;1.00;0.80;;;;;;;17.00;63.46;97221.72;10369645;28;20025;-26
2023/01/06 17:17:53;;;;;;;1.63;1.38;;;;;;;17.00;63.41;97234.34;10365429;28;20556;-28
2023/01/06 17:22:53;;;;;;;1.27;1.17;;;;;;;17.00;63.33;97224.25;10368137;28;20125;-27
2023/01/06 17:27:54;;;;;;;1.50;1.40;;;;;;;17.00;63.44;97224.25;10366330;28;20042;-25
2023/01/06 17:32:54;;;;;;;0.95;0.80;;;;;;;17.00;63.26;97227.59;10366584;28;20630;-28
2023/01/06 17:37:58;;;;;;;1.07;0.97;;;;;;;17.00;63.19;97216.66;10366839;28;20033;-27
2023/01/06 17:43:06;;;;;;;1.80;1.20;;;;;;;17.07;64.39;97220.97;10369777;28;20057;-28
2023/01/06 17:48:10;;;;;;;1.40;0.80;;;;;;;17.05;64.13;97213.34;10368033;28;20034;-26
2023/01/06 17:58:37;;;;;;;1.15;0.98;;;;;;;17.03;63.39;97227.66;10368842;28;20033;-26
2023/01/06 18:03:41;;;;;;;1.15;1.05;;;;;;;17.02;63.01;97232.69;10366560;28;20057;-26
2023/01/06 18:08:43;;;;;;;1.10;0.93;;;;;;;16.99;63.30;97227.59;10365871;28;20105;-27
2023/01/06 18:13:43;;;;;;;1.38;1.10;;;;;;;16.96;63.26;97223.34;10365192;28;20124;-27
2023/01/06 18:18:44;;;;;;;0.82;0.80;;;;;;;16.96;63.02;97227.53;10362375;28;20025;-26
2023/01/06 18:23:49;;;;;;;1.33;1.00;;;;;;;16.94;63.41;97229.19;10365913;28;20026;-27
2023/01/06 18:28:49;;;;;;;1.08;0.98;;;;;;;16.96;63.31;97233.47;10366772;28;20037;-26
2023/01/06 18:33:50;;;;;;;1.30;0.93;;;;;;;16.91;63.35;97219.88;10367989;28;20395;-26
2023/01/06 18:38:50;;;;;;;1.05;0.95;;;;;;;16.96;63.13;97232.59;10364813;28;20125;-25
2023/01/06 18:43:50;;;;;;;0.93;0.77;;;;;;;16.97;62.98;97224.19;10363761;28;20081;-26
2023/01/06 18:48:53;;;;;;;1.27;0.82;;;;;;;17.06;63.42;97225.16;10367151;28;20042;-28
2023/01/06 18:53:56;;;;;;;3.25;1.00;;;;;;;17.09;63.61;97221.84;10366481;28;20030;-27
2023/01/06 18:58:58;;;;;;;1.60;0.82;;;;;;;17.18;63.39;97224.47;10366519;28;20046;-27
2023/01/06 19:04:17;;;;;;;0.82;0.82;;;;;;;17.21;62.03;97224.50;10362239;28;20040;-27
2023/01/06 19:09:27;;;;;;;0.85;0.70;;;;;;;17.16;62.62;97221.09;10372000;28;20037;-27
2023/01/06 19:14:32;;;;;;;0.80;0.80;;;;;;;17.11;62.95;97220.16;10366843;28;20490;-26
2023/01/06 19:19:38;;;;;;;1.10;0.80;;;;;;;17.13;63.27;97214.31;10372244;28;20564;-26
2023/01/06 19:24:45;;;;;;;1.17;0.80;;;;;;;17.13;63.33;97218.50;10372127;28;20072;-26
2023/01/06 19:29:46;;;;;;;1.30;0.90;;;;;;;17.13;63.16;97221.03;10371672;28;20033;-25
2023/01/06 19:34:46;;;;;;;0.60;0.60;;;;;;;17.13;62.89;97210.91;10375082;28;20041;-25
2023/01/06 19:39:53;;;;;;;0.70;0.60;;;;;;;17.15;62.75;97219.38;10371001;28;20025;-26
2023/01/06 19:44:57;;;;;;;1.00;0.77;;;;;;;17.15;62.93;97221.91;10373526;28;20121;-26
2023/01/06 19:50:05;;;;;;;0.73;0.68;;;;;;;17.10;63.02;97210.88;10374228;28;20033;-26
2023/01/06 19:55:29;;;;;;;7.28;1.67;;;;;;;17.11;60.38;97218.50;10363561;28;20060;-25
2023/01/06 20:00:46;;;;;;;3.75;1.35;;;;;;;17.11;59.49;97213.44;10360667;28;20041;-26
2023/01/06 20:05:46;;;;;;;;;;;;;;;17.19;62.65;97211.00;10355584;28;20124;-26
2023/01/06 20:10:47;;;;;;;3.65;1.08;;;;;;;17.19;61.46;97216.06;10375058;28;19917;-27
2023/01/06 20:15:47;;;;;;;2.53;1.20;;;;;;;17.17;62.45;97207.59;10364670;28;20038;-27
2023/01/06 20:20:47;;;;;;;2.50;1.00;;;;;;;17.14;62.49;97207.56;10368945;28;20040;-27
2023/01/06 20:25:48;;;;;;;4.20;1.40;;;;;;;17.14;62.47;97213.47;10371492;28;20064;-27
2023/01/06 20:30:49;;;;;;;3.78;1.02;;;;;;;17.14;62.24;97192.41;10371021;28;20030;-27
2023/01/06 20:35:49;;;;;;;1.58;0.98;;;;;;;17.21;62.20;97196.69;10370096;28;20084;-27
2023/01/06 20:40:50;;;;;;;5.78;1.80;;;;;;;17.13;63.47;97205.84;10361554;28;20034;-27
2023/01/06 20:45:50;;;;;;;7.65;1.90;;;;;;;17.19;62.90;97206.78;10358259;28;20038;-27
2023/01/06 20:50:51;;;;;;;4.50;1.60;;;;;;;17.17;62.86;97207.59;10362377;28;20038;-27
2023/01/06 20:55:51;;;;;;;3.43;1.80;;;;;;;17.22;62.03;97205.97;10370811;28;20458;-28
2023/01/06 21:00:52;;;;;;;3.80;1.90;;;;;;;17.21;62.77;97199.19;10380430;28;20037;-26
2023/01/06 21:05:52;;;;;;;6.37;2.60;;;;;;;17.24;62.70;97199.25;10355438;28;20292;-27
2023/01/06 21:10:53;;;;;;;4.85;2.92;;;;;;;17.23;63.34;97183.22;10367504;28;20075;-25
2023/01/06 21:15:53;;;;;;;7.03;2.03;;;;;;;17.28;61.99;97198.44;10361796;28;20706;-26
2023/01/06 21:20:57;;;;;;;4.90;2.37;;;;;;;17.28;61.58;97191.72;10367165;28;20485;-27
2023/01/06 21:25:59;;;;;;;6.00;3.05;;;;;;;17.29;62.13;97190.03;10387986;28;20374;-25
2023/01/06 21:30:59;;;;;;;7.53;3.25;;;;;;;17.28;62.21;97194.25;10374114;28;20417;-26
2023/01/06 21:36:00;;;;;;;8.17;3.50;;;;;;;17.28;62.52;97183.28;10377752;28;20030;-25
2023/01/06 21:46:19;;;;;;;4.72;2.95;;;;;;;17.20;62.45;97167.16;10362484;28;20045;-26
2023/01/06 21:51:19;;;;;;;8.27;3.40;;;;;;;17.23;62.65;97175.63;10368200;28;20402;-26
2023/01/06 21:56:20;;;;;;;8.15;3.08;;;;;;;17.23;63.11;97177.31;10369196;28;20512;-27
2023/01/06 22:01:20;;;;;;;8.47;3.53;;;;;;;17.20;63.28;97173.06;10362280;28;20029;-26
2023/01/06 22:06:22;;;;;;;7.72;3.63;;;;;;;17.21;63.30;97172.22;10354588;28;20034;-26
2023/01/06 22:11:26;;;;;;;5.32;3.28;;;;;;;17.22;62.78;97170.53;10369287;28;20076;-26
2023/01/06 22:16:26;;;;;;;5.75;3.35;;;;;;;17.24;63.04;97177.31;10364119;28;20037;-26
2023/01/06 22:21:27;;;;;;;7.05;3.53;;;;;;;17.26;63.52;97162.16;10372887;28;20414;-25
2023/01/06 22:26:27;;;;;;;5.15;2.70;;;;;;;17.28;62.44;97160.50;10368229;28;20416;-27
2023/01/06 22:31:29;;;;;;;5.68;3.15;;;;;;;17.23;63.19;97162.97;10363799;28;20517;-26
2023/01/06 22:36:30;;;;;;;7.10;3.50;;;;;;;17.22;63.40;97170.53;10364090;28;20037;-27
2023/01/06 22:41:30;;;;;;;6.77;3.80;;;;;;;17.17;63.55;97162.88;10377957;28;20033;-27
2023/01/06 22:46:30;;;;;;;5.93;3.63;;;;;;;17.18;63.44;97154.50;10364052;28;20046;-26
2023/01/06 22:51:31;;;;;;;10.67;3.70;;;;;;;17.17;63.24;97149.41;10355425;28;20034;-26
2023/01/06 22:56:31;;;;;;;6.53;4.05;;;;;;;17.20;63.58;97154.50;10369259;28;20025;-26
2023/01/06 23:01:32;;;;;;;5.77;3.83;;;;;;;17.17;63.87;97142.66;10362498;28;20022;-25
2023/01/06 23:06:33;;;;;;;7.37;3.43;;;;;;;17.16;63.69;97140.94;10365224;28;20369;-25
2023/01/06 23:11:40;;;;;;;7.82;3.42;;;;;;;17.15;63.66;97144.31;10373383;28;20096;-25
2023/01/06 23:16:41;;;;;;;7.85;3.95;;;;;;;17.15;63.61;97131.66;10360291;28;20482;-26
2023/01/06 23:21:43;;;;;;;5.60;3.00;;;;;;;17.13;63.62;97129.94;10360857;28;20108;-26
2023/01/06 23:26:45;;;;;;;6.57;3.90;;;;;;;17.16;63.38;97130.00;10368773;28;20043;-27
2023/01/06 23:31:46;;;;;;;5.47;2.97;;;;;;;17.21;63.49;97128.34;10364982;28;20040;-26
2023/01/06 23:36:47;;;;;;;5.03;2.85;;;;;;;17.22;62.63;97122.47;10363190;28;20044;-26
2023/01/06 23:41:47;;;;;;;6.82;3.25;;;;;;;17.17;63.29;97116.53;10376301;28;20026;-27
2023/01/06 23:46:47;;;;;;;8.68;3.35;;;;;;;17.15;63.61;97103.84;10365522;28;20058;-25
2023/01/06 23:51:48;;;;;;;5.38;3.15;;;;;;;17.13;63.43;97097.91;10372903;28;20498;-26
2023/01/06 23:56:48;;;;;;;6.30;3.20;;;;;;;17.11;63.20;97092.00;10373805;28;20034;-25
